createdAt,value
2018-11-01T00:00:08.293Z,646.20
2018-11-01T00:02:10.301Z,639.42
2018-11-01T00:04:12.289Z,648.28
2018-11-01T00:06:14.392Z,648.67
2018-11-01T00:08:16.362Z,644.80
2018-11-01T00:10:18.398Z,631.65
2018-11-01T00:12:20.426Z,635.92
2018-11-01T00:14:22.414Z,628.62
2018-11-01T00:16:24.412Z,636.08
2018-11-01T00:18:26.421Z,622.67
2018-11-01T00:20:28.404Z,627.35
2018-11-01T00:22:30.421Z,632.92
2018-11-01T00:24:32.399Z,626.48
2018-11-01T00:26:34.408Z,619.28
2018-11-01T00:28:36.429Z,626.45
2018-11-01T00:30:38.453Z,599.33
2018-11-01T00:32:40.459Z,593.23
2018-11-01T00:34:42.483Z,596.87
2018-11-01T00:36:44.458Z,600.60
2018-11-01T00:38:46.446Z,612.77
2018-11-01T00:40:48.458Z,592.70
2018-11-01T00:42:50.536Z,584.98
2018-11-01T00:44:52.565Z,590.98
2018-11-01T00:46:54.574Z,598.47
2018-11-01T00:48:56.595Z,584.85
2018-11-01T00:50:58.572Z,587.17
2018-11-01T00:53:00.572Z,579.77
2018-11-01T00:55:02.573Z,577.10
2018-11-01T00:57:04.602Z,574.38
2018-11-01T00:59:06.584Z,568.25
2018-11-01T01:01:08.614Z,559.52
2018-11-01T01:03:10.600Z,563.37
2018-11-01T01:05:12.613Z,569.37
2018-11-01T01:07:14.689Z,565.52
2018-11-01T01:09:16.615Z,566.85
2018-11-01T01:11:18.664Z,552.62
2018-11-01T01:13:20.658Z,560.17
2018-11-01T01:15:22.650Z,552.70
2018-11-01T01:17:24.660Z,544.80
2018-11-01T01:19:26.655Z,536.73
2018-11-01T01:21:28.701Z,545.02
2018-11-01T01:23:30.693Z,538.65
2018-11-01T01:25:32.646Z,542.87
2018-11-01T01:27:34.688Z,538.67
2018-11-01T01:29:36.680Z,535.63
2018-11-01T01:31:38.696Z,532.90
2018-11-01T01:33:40.678Z,514.40
2018-11-01T01:35:42.674Z,525.80
2018-11-01T01:37:44.734Z,528.15
2018-11-01T01:39:46.724Z,521.10
2018-11-01T01:41:48.713Z,517.80
2018-11-01T01:43:50.733Z,505.37
2018-11-01T01:45:52.721Z,515.05
2018-11-01T01:47:54.735Z,501.07
2018-11-01T01:49:56.713Z,504.42
2018-11-01T01:51:58.736Z,515.83
2018-11-01T01:54:00.727Z,482.35
2018-11-01T01:56:02.708Z,493.35
2018-11-01T01:58:04.709Z,486.20
2018-11-01T02:00:06.690Z,485.40
2018-11-01T02:02:08.668Z,485.60
2018-11-01T02:04:10.689Z,481.02
2018-11-01T02:06:12.666Z,479.10
2018-11-01T02:08:14.679Z,470.38
2018-11-01T02:10:16.703Z,470.65
2018-11-01T02:12:18.701Z,469.65
2018-11-01T02:14:20.725Z,465.92
2018-11-01T02:16:22.704Z,469.97
2018-11-01T02:18:24.761Z,456.25
2018-11-01T02:20:26.744Z,455.20
2018-11-01T02:22:28.740Z,450.02
2018-11-01T02:24:30.761Z,444.58
2018-11-01T02:26:32.749Z,446.85
2018-11-01T02:28:34.914Z,451.75
2018-11-01T02:30:36.940Z,451.22
2018-11-01T02:32:38.936Z,445.40
2018-11-01T02:34:40.969Z,433.75
2018-11-01T02:36:42.951Z,435.30
2018-11-01T02:38:44.993Z,443.65
2018-11-01T02:40:46.958Z,437.57
2018-11-01T02:42:48.989Z,433.55
2018-11-01T02:44:50.981Z,413.65
2018-11-01T02:46:52.960Z,425.77
2018-11-01T02:48:54.988Z,427.73
2018-11-01T02:50:57.968Z,431.63
2018-11-01T02:52:59.983Z,424.93
2018-11-01T02:55:01.998Z,411.12
2018-11-01T02:57:04.017Z,411.20
2018-11-01T02:59:06.009Z,417.60
2018-11-01T03:01:08.052Z,405.52
2018-11-01T03:03:10.023Z,413.75
2018-11-01T03:05:12.045Z,403.73
2018-11-01T03:07:14.074Z,398.10
2018-11-01T03:09:16.095Z,393.97
2018-11-01T03:11:18.152Z,396.65
2018-11-01T03:13:20.198Z,395.82
2018-11-01T03:15:22.174Z,391.45
2018-11-01T03:17:24.166Z,388.00
2018-11-01T03:19:26.184Z,390.15
2018-11-01T03:21:28.251Z,389.68
2018-11-01T03:23:30.203Z,384.95
2018-11-01T03:25:32.193Z,374.92
2018-11-01T03:27:34.166Z,368.17
2018-11-01T03:29:36.193Z,375.07
2018-11-01T03:31:38.249Z,370.60
2018-11-01T03:33:40.230Z,373.77
2018-11-01T03:35:42.283Z,366.20
2018-11-01T03:37:44.258Z,356.98
2018-11-01T03:39:46.275Z,367.55
2018-11-01T03:41:48.254Z,361.70
2018-11-01T03:43:50.247Z,345.95
2018-11-01T03:45:52.416Z,349.88
2018-11-01T03:47:54.268Z,354.57
2018-11-01T03:49:56.284Z,347.93
2018-11-01T03:51:58.315Z,343.42
2018-11-01T03:54:00.273Z,345.42
2018-11-01T03:56:02.276Z,344.57
2018-11-01T03:58:04.258Z,342.32
2018-11-01T04:00:06.296Z,337.57
2018-11-01T04:02:08.276Z,338.92
2018-11-01T04:04:10.261Z,333.52
2018-11-01T04:06:12.281Z,326.60
2018-11-01T04:08:14.257Z,329.00
2018-11-01T04:10:16.282Z,326.73
2018-11-01T04:12:18.261Z,324.07
2018-11-01T04:14:20.211Z,317.00
2018-11-01T04:16:22.270Z,324.52
2018-11-01T04:18:24.267Z,327.48
2018-11-01T04:20:26.244Z,321.43
2018-11-01T04:22:28.251Z,322.50
2018-11-01T04:24:30.242Z,317.18
2018-11-01T04:26:32.264Z,312.17
2018-11-01T04:28:34.266Z,309.85
2018-11-01T04:30:36.241Z,309.83
2018-11-01T04:32:38.264Z,299.83
2018-11-01T04:34:40.286Z,301.20
2018-11-01T04:36:42.280Z,300.73
2018-11-01T04:38:44.276Z,300.52
2018-11-01T04:40:46.392Z,299.12
2018-11-01T04:42:48.291Z,286.95
2018-11-01T04:44:50.275Z,298.35
2018-11-01T04:46:52.300Z,284.80
2018-11-01T04:48:54.304Z,292.98
2018-11-01T04:50:56.329Z,293.73
2018-11-01T04:52:58.337Z,285.75
2018-11-01T04:55:00.352Z,351.13
2018-11-01T04:57:02.343Z,394.40
2018-11-01T04:59:04.400Z,368.67
2018-11-01T05:01:06.382Z,371.45
2018-11-01T05:03:08.411Z,396.27
2018-11-01T05:05:10.492Z,434.35
2018-11-01T05:07:12.437Z,486.35
2018-11-01T05:09:14.423Z,536.12
2018-11-01T05:11:16.448Z,560.95
2018-11-01T05:13:18.468Z,583.37
2018-11-01T05:15:20.499Z,615.95
2018-11-01T05:17:22.480Z,629.00
2018-11-01T05:19:24.482Z,585.58
2018-11-01T05:21:26.496Z,564.90
2018-11-01T05:23:28.500Z,602.00
2018-11-01T05:25:30.497Z,631.30
2018-11-01T05:27:32.521Z,635.65
2018-11-01T05:29:34.559Z,631.92
2018-11-01T05:31:36.477Z,619.33
2018-11-01T05:33:38.497Z,606.20
2018-11-01T05:35:40.501Z,618.73
2018-11-01T05:37:42.524Z,598.62
2018-11-01T05:39:44.496Z,594.20
2018-11-01T05:41:46.583Z,610.50
2018-11-01T05:43:48.761Z,590.15
2018-11-01T05:45:50.742Z,615.88
2018-11-01T05:47:52.724Z,698.62
2018-11-01T05:49:54.739Z,666.12
2018-11-01T05:51:56.731Z,731.92
2018-11-01T05:53:58.749Z,668.77
2018-11-01T05:56:00.775Z,703.45
2018-11-01T05:58:02.810Z,708.17
2018-11-01T06:00:04.879Z,710.60
2018-11-01T06:02:06.810Z,711.80
2018-11-01T06:04:08.794Z,704.02
2018-11-01T06:06:10.821Z,698.13
2018-11-01T06:08:12.813Z,702.97
2018-11-01T06:10:14.807Z,694.42
2018-11-01T06:12:16.810Z,683.62
2018-11-01T06:14:18.783Z,685.67
2018-11-01T06:16:20.813Z,674.10
2018-11-01T06:18:22.776Z,662.17
2018-11-01T06:20:24.812Z,676.85
2018-11-01T06:22:26.785Z,658.07
2018-11-01T06:24:28.798Z,655.15
2018-11-01T06:26:30.809Z,646.55
2018-11-01T06:28:32.899Z,647.77
2018-11-01T06:30:34.880Z,639.73
2018-11-01T06:32:36.896Z,633.20
2018-11-01T06:34:38.944Z,629.48
2018-11-01T06:36:40.933Z,620.08
2018-11-01T06:38:42.954Z,630.03
2018-11-01T06:40:44.944Z,621.40
2018-11-01T06:42:46.968Z,608.95
2018-11-01T06:44:49.061Z,604.62
2018-11-01T06:46:50.985Z,593.42
2018-11-01T06:48:53.007Z,601.17
2018-11-01T06:50:55.017Z,588.48
2018-11-01T06:52:57.026Z,587.12
2018-11-01T06:54:59.072Z,590.98
2018-11-01T06:57:01.078Z,574.70
2018-11-01T06:59:03.194Z,577.05
2018-11-01T07:01:05.096Z,571.00
2018-11-01T07:03:07.059Z,568.65
2018-11-01T07:05:09.085Z,566.45
2018-11-01T07:07:11.073Z,567.05
2018-11-01T07:09:13.084Z,561.50
2018-11-01T07:11:15.097Z,549.95
2018-11-01T07:13:17.092Z,545.27
2018-11-01T07:15:19.135Z,543.87
2018-11-01T07:17:21.278Z,539.32
2018-11-01T07:19:25.383Z,536.30
2018-11-01T07:21:27.411Z,530.55
2018-11-01T07:23:29.401Z,528.88
2018-11-01T07:25:31.528Z,521.17
2018-11-01T07:27:33.414Z,515.75
2018-11-01T07:29:35.403Z,519.88
2018-11-01T07:31:37.396Z,514.70
2018-11-01T07:33:39.409Z,511.30
2018-11-01T07:35:41.400Z,501.95
2018-11-01T07:37:43.419Z,502.28
2018-11-01T07:39:45.445Z,510.97
2018-11-01T07:41:47.456Z,304.38
2018-11-01T07:43:49.480Z,350.02
2018-11-01T07:45:51.484Z,368.37
2018-11-01T07:47:53.489Z,403.38
2018-11-01T07:49:55.545Z,424.70
2018-11-01T07:51:57.566Z,467.68
2018-11-01T07:53:59.546Z,428.12
2018-11-01T07:56:01.532Z,412.68
2018-11-01T07:58:03.554Z,407.90
2018-11-01T08:00:05.551Z,423.52
2018-11-01T08:02:07.622Z,409.13
2018-11-01T08:04:09.610Z,415.50
2018-11-01T08:06:11.612Z,408.42
2018-11-01T08:08:13.636Z,406.25
2018-11-01T08:10:15.616Z,399.10
2018-11-01T08:12:17.619Z,394.32
2018-11-01T08:14:19.655Z,396.30
2018-11-01T08:16:21.665Z,397.20
2018-11-01T08:18:23.704Z,392.85
2018-11-01T08:20:26.024Z,414.85
2018-11-01T08:22:27.965Z,411.12
2018-11-01T08:24:29.978Z,415.10
2018-11-01T08:26:31.990Z,426.40
2018-11-01T08:28:33.990Z,419.37
2018-11-01T08:30:36.011Z,449.18
2018-11-01T08:32:38.027Z,447.93
2018-11-01T08:34:40.053Z,450.20
2018-11-01T08:36:42.117Z,442.27
2018-11-01T08:38:44.100Z,441.12
2018-11-01T08:40:46.128Z,453.65
2018-11-01T08:42:48.153Z,442.85
2018-11-01T08:44:50.151Z,409.75
2018-11-01T08:46:52.143Z,425.00
2018-11-01T08:48:54.141Z,435.25
2018-11-01T08:50:56.127Z,405.57
2018-11-01T08:52:58.150Z,402.97
2018-11-01T08:55:00.151Z,387.68
2018-11-01T08:57:02.120Z,399.12
2018-11-01T08:59:04.140Z,403.27
2018-11-01T09:01:06.134Z,384.23
2018-11-01T09:03:08.145Z,356.02
2018-11-01T09:05:10.135Z,388.18
2018-11-01T09:07:12.157Z,377.32
2018-11-01T09:09:14.134Z,368.12
2018-11-01T09:11:16.104Z,372.40
2018-11-01T09:13:18.163Z,345.67
2018-11-01T09:15:20.129Z,370.70
2018-11-01T09:17:22.170Z,385.82
2018-11-01T09:19:24.242Z,388.95
2018-11-01T09:21:26.164Z,398.30
2018-11-01T09:23:28.158Z,389.52
2018-11-01T09:25:30.185Z,405.77
2018-11-01T09:27:32.162Z,414.05
2018-11-01T09:29:34.196Z,405.65
2018-11-01T09:31:36.192Z,426.45
2018-11-01T09:33:38.165Z,420.77
2018-11-01T09:35:40.263Z,415.43
2018-11-01T09:37:42.213Z,523.45
2018-11-01T09:39:44.213Z,431.00
2018-11-01T09:41:46.206Z,436.12
2018-11-01T09:43:48.229Z,446.72
2018-11-01T09:45:50.314Z,435.93
2018-11-01T09:47:52.516Z,267.98
2018-11-01T09:49:54.276Z,59.63
2018-11-01T09:51:56.361Z,30.35
2018-11-01T09:53:58.424Z,48.48
2018-11-01T09:56:00.443Z,197.02
2018-11-01T09:58:02.497Z,304.65
2018-11-01T10:00:04.470Z,336.85
2018-11-01T10:02:06.525Z,325.32
2018-11-01T10:04:08.502Z,271.20
2018-11-01T10:06:10.529Z,305.35
2018-11-01T10:08:12.528Z,297.15
2018-11-01T10:10:14.561Z,299.92
2018-11-01T10:12:16.570Z,309.32
2018-11-01T10:14:18.519Z,142.03
2018-11-01T10:16:20.724Z,68.50
2018-11-01T10:18:22.891Z,201.73
2018-11-01T10:20:24.518Z,79.27
2018-11-01T10:22:26.630Z,100.53
2018-11-01T10:24:28.542Z,172.57
2018-11-01T10:26:30.503Z,161.40
2018-11-01T10:28:32.493Z,155.12
2018-11-01T10:30:34.480Z,153.65
2018-11-01T10:32:36.438Z,149.18
2018-11-01T10:34:38.441Z,140.85
2018-11-01T10:36:40.419Z,136.72
2018-11-01T10:38:42.421Z,133.85
2018-11-01T10:40:44.519Z,129.20
2018-11-01T10:42:46.458Z,128.20
2018-11-01T10:44:48.427Z,124.58
2018-11-01T10:46:50.573Z,125.22
2018-11-01T10:48:52.545Z,118.62
2018-11-01T10:50:54.607Z,124.27
2018-11-01T10:52:56.601Z,121.57
2018-11-01T10:54:58.586Z,117.17
2018-11-01T10:57:00.637Z,117.85
2018-11-01T10:59:02.616Z,116.30
2018-11-01T11:01:05.095Z,116.12
2018-11-01T11:03:07.089Z,106.92
2018-11-01T11:05:09.066Z,109.22
2018-11-01T11:07:11.079Z,106.92
2018-11-01T11:09:13.108Z,106.80
2018-11-01T11:11:15.103Z,101.05
2018-11-01T11:13:17.110Z,103.92
2018-11-01T11:15:19.095Z,103.07
2018-11-01T11:17:21.089Z,95.95
2018-11-01T11:19:23.129Z,100.10
2018-11-01T11:21:25.153Z,97.62
2018-11-01T11:23:27.147Z,93.65
2018-11-01T11:25:29.153Z,97.92
2018-11-01T11:27:31.329Z,94.05
2018-11-01T11:29:33.287Z,92.55
2018-11-01T11:31:35.315Z,88.52
2018-11-01T11:33:37.303Z,91.47
2018-11-01T11:35:39.300Z,87.70
2018-11-01T11:37:41.319Z,91.53
2018-11-01T11:39:43.391Z,86.55
2018-11-01T11:41:45.381Z,86.97
2018-11-01T11:43:47.413Z,81.72
2018-11-01T11:45:49.395Z,81.87
2018-11-01T11:47:51.382Z,82.53
2018-11-01T11:49:53.405Z,81.60
2018-11-01T11:51:55.405Z,79.32
2018-11-01T11:53:57.409Z,79.72
2018-11-01T11:55:59.393Z,77.30
2018-11-01T11:58:01.405Z,81.45
2018-11-01T12:00:03.407Z,73.57
2018-11-01T12:02:05.438Z,74.15
2018-11-01T12:04:07.468Z,75.70
2018-11-01T12:06:09.592Z,75.35
2018-11-01T12:08:11.497Z,73.90
2018-11-01T12:10:13.503Z,71.80
2018-11-01T12:12:15.517Z,70.42
2018-11-01T12:14:17.595Z,70.78
2018-11-01T12:16:19.523Z,70.10
2018-11-01T12:18:21.510Z,68.62
2018-11-01T12:20:23.515Z,67.92
2018-11-01T12:22:25.642Z,67.42
2018-11-01T12:24:27.585Z,64.47
2018-11-01T12:26:29.557Z,64.62
2018-11-01T12:28:31.645Z,65.15
2018-11-01T12:30:33.564Z,61.10
2018-11-01T12:32:35.532Z,65.85
2018-11-01T12:34:37.542Z,63.35
2018-11-01T12:36:39.522Z,60.55
2018-11-01T12:38:41.505Z,61.15
2018-11-01T12:40:43.513Z,60.67
2018-11-01T12:42:45.481Z,59.18
2018-11-01T12:44:47.470Z,62.65
2018-11-01T12:46:49.446Z,58.98
2018-11-01T12:48:51.494Z,56.37
2018-11-01T12:50:53.476Z,57.15
2018-11-01T12:52:55.449Z,56.20
2018-11-01T12:54:57.546Z,54.90
2018-11-01T12:56:59.501Z,56.23
2018-11-01T12:59:01.543Z,52.27
2018-11-01T13:01:03.512Z,56.73
2018-11-01T13:03:05.497Z,49.95
2018-11-01T13:05:07.509Z,49.38
2018-11-01T13:07:09.544Z,96.37
2018-11-01T13:09:11.604Z,55.08
2018-11-01T13:11:13.584Z,58.02
2018-11-01T13:13:15.599Z,74.15
2018-11-01T13:15:17.592Z,88.78
2018-11-01T13:17:19.595Z,103.87
2018-11-01T13:19:21.737Z,101.72
2018-11-01T13:21:23.703Z,104.50
2018-11-01T13:23:25.697Z,104.12
2018-11-01T13:25:27.684Z,100.72
2018-11-01T13:27:30.575Z,94.10
2018-11-01T13:29:32.537Z,94.62
2018-11-01T13:31:34.548Z,86.53
2018-11-01T13:33:36.556Z,89.67
2018-11-01T13:35:38.541Z,84.07
2018-11-01T13:37:40.522Z,80.12
2018-11-01T13:39:42.608Z,80.00
2018-11-01T13:41:44.628Z,71.67
2018-11-01T13:43:46.540Z,73.10
2018-11-01T13:45:48.520Z,73.00
2018-11-01T13:47:50.672Z,63.68
2018-11-01T13:49:52.520Z,64.95
2018-11-01T13:51:54.498Z,62.20
2018-11-01T13:53:56.517Z,56.92
2018-11-01T13:55:58.560Z,61.35
2018-11-01T13:58:00.534Z,60.88
2018-11-01T14:00:02.549Z,59.42
2018-11-01T14:02:04.525Z,55.15
2018-11-01T14:04:06.508Z,56.80
2018-11-01T14:06:08.566Z,54.10
2018-11-01T14:08:10.520Z,48.48
2018-11-01T14:10:12.528Z,50.98
2018-11-01T14:12:14.516Z,47.58
2018-11-01T14:14:16.809Z,48.05
2018-11-01T14:16:18.529Z,48.48
2018-11-01T14:18:20.520Z,46.23
2018-11-01T14:20:22.546Z,47.17
2018-11-01T14:22:24.553Z,42.45
2018-11-01T14:24:26.560Z,43.50
2018-11-01T14:26:28.551Z,43.95
2018-11-01T14:28:30.537Z,43.73
2018-11-01T14:30:32.574Z,43.17
2018-11-01T14:32:34.560Z,40.92
2018-11-01T14:34:36.539Z,96.85
2018-11-01T14:36:38.573Z,125.18
2018-11-01T14:38:40.561Z,267.40
2018-11-01T14:40:42.580Z,106.17
2018-11-01T14:42:44.620Z,95.97
2018-11-01T14:44:46.654Z,91.40
2018-11-01T14:46:48.644Z,95.80
2018-11-01T14:48:50.644Z,99.80
2018-11-01T14:50:52.661Z,94.75
2018-11-01T14:52:54.824Z,88.03
2018-11-01T14:54:57.622Z,87.75
2018-11-01T14:57:00.478Z,82.30
2018-11-01T14:59:01.898Z,85.85
2018-11-01T15:01:02.740Z,77.75
2018-11-01T15:03:04.708Z,76.05
2018-11-01T15:05:06.708Z,74.35
2018-11-01T15:07:08.726Z,68.50
2018-11-01T15:09:10.728Z,69.58
2018-11-01T15:11:12.760Z,56.70
2018-11-01T15:13:14.850Z,83.72
2018-11-01T15:15:16.749Z,98.35
2018-11-01T15:17:18.744Z,142.50
2018-11-01T15:19:20.768Z,125.60
2018-11-01T15:21:22.756Z,101.22
2018-11-01T15:23:24.766Z,79.65
2018-11-01T15:25:26.748Z,72.10
2018-11-01T15:27:28.749Z,72.08
2018-11-01T15:29:30.744Z,67.58
2018-11-01T15:31:32.780Z,69.95
2018-11-01T15:33:34.926Z,66.77
2018-11-01T15:35:36.860Z,64.70
2018-11-01T15:37:39.004Z,56.33
2018-11-01T15:39:40.937Z,58.08
2018-11-01T15:41:42.869Z,53.80
2018-11-01T15:43:44.891Z,54.77
2018-11-01T15:45:46.920Z,51.92
2018-11-01T15:47:48.937Z,53.02
2018-11-01T15:49:50.989Z,51.77
2018-11-01T15:51:53.060Z,44.95
2018-11-01T15:53:55.006Z,48.85
2018-11-01T15:55:57.002Z,44.80
2018-11-01T15:57:59.050Z,44.20
2018-11-01T16:00:01.061Z,48.65
2018-11-01T16:02:03.054Z,43.98
2018-11-01T16:04:05.110Z,43.50
2018-11-01T16:06:07.075Z,42.03
2018-11-01T16:08:09.561Z,65.08
2018-11-01T16:10:11.767Z,241.30
2018-11-01T16:12:13.605Z,89.72
2018-11-01T16:14:15.633Z,88.33
2018-11-01T16:16:17.633Z,83.27
2018-11-01T16:18:19.599Z,87.47
2018-11-01T16:20:21.715Z,83.58
2018-11-01T16:22:23.864Z,80.12
2018-11-01T16:24:25.855Z,87.80
2018-11-01T16:26:27.896Z,75.00
2018-11-01T16:28:29.978Z,77.82
2018-11-01T16:30:31.961Z,74.85
2018-11-01T16:32:33.973Z,72.15
2018-11-01T16:34:35.988Z,70.42
2018-11-01T16:36:38.107Z,86.37
2018-11-01T16:38:40.164Z,80.15
2018-11-01T16:40:42.202Z,80.57
2018-11-01T16:42:44.342Z,91.65
2018-11-01T16:44:46.220Z,99.50
2018-11-01T16:46:48.236Z,98.92
2018-11-01T16:48:50.215Z,100.47
2018-11-01T16:50:52.386Z,99.60
2018-11-01T16:52:54.261Z,93.47
2018-11-01T16:54:56.290Z,89.50
2018-11-01T16:56:58.270Z,87.00
2018-11-01T16:59:00.272Z,80.05
2018-11-01T17:01:02.311Z,76.65
2018-11-01T17:03:04.366Z,165.28
2018-11-01T17:05:06.361Z,147.20
2018-11-01T17:07:08.349Z,213.80
2018-11-01T17:09:10.379Z,183.10
2018-11-01T17:11:12.412Z,146.77
2018-11-01T17:13:14.398Z,135.97
2018-11-01T17:15:16.508Z,129.70
2018-11-01T17:17:18.460Z,131.40
2018-11-01T17:19:20.445Z,116.15
2018-11-01T17:21:22.460Z,121.87
2018-11-01T17:23:24.448Z,116.05
2018-11-01T17:25:26.469Z,109.85
2018-11-01T17:27:28.503Z,111.20
2018-11-01T17:29:30.542Z,113.75
2018-11-01T17:31:32.511Z,108.12
2018-11-01T17:33:34.546Z,107.25
2018-11-01T17:35:36.583Z,101.47
2018-11-01T17:37:38.613Z,96.95
2018-11-01T17:39:40.593Z,98.45
2018-11-01T17:41:42.625Z,93.95
2018-11-01T17:43:44.657Z,89.58
2018-11-01T17:45:46.683Z,179.42
2018-11-01T17:47:48.734Z,181.30
2018-11-01T17:49:50.720Z,111.25
2018-11-01T17:51:52.749Z,120.97
2018-11-01T17:53:54.768Z,138.32
2018-11-01T17:55:56.752Z,145.80
2018-11-01T17:57:58.894Z,147.95
2018-11-01T18:00:00.887Z,151.50
2018-11-01T18:02:03.229Z,146.95
2018-11-01T18:04:05.281Z,141.12
2018-11-01T18:06:07.268Z,128.50
2018-11-01T18:08:09.347Z,126.25
2018-11-01T18:10:11.279Z,123.82
2018-11-01T18:12:13.305Z,121.17
2018-11-01T18:14:15.385Z,115.25
2018-11-01T18:16:17.344Z,113.75
2018-11-01T18:18:19.347Z,109.78
2018-11-01T18:20:21.368Z,107.67
2018-11-01T18:22:23.378Z,98.20
2018-11-01T18:24:25.407Z,90.60
2018-11-01T18:26:27.751Z,91.92
2018-11-01T18:28:29.748Z,89.30
2018-11-01T18:30:31.764Z,83.52
2018-11-01T18:32:33.883Z,80.57
2018-11-01T18:34:35.845Z,86.35
2018-11-01T18:36:37.814Z,78.52
2018-11-01T18:38:39.802Z,79.65
2018-11-01T18:40:41.833Z,87.88
2018-11-01T18:42:43.842Z,104.90
2018-11-01T18:44:45.821Z,116.12
2018-11-01T18:46:47.837Z,116.77
2018-11-01T18:48:49.879Z,117.85
2018-11-01T18:50:51.883Z,110.12
2018-11-01T18:52:53.928Z,111.17
2018-11-01T18:54:55.931Z,107.07
2018-11-01T18:56:57.914Z,103.87
2018-11-01T18:58:59.958Z,101.35
2018-11-01T19:01:02.053Z,97.33
2018-11-01T19:03:04.032Z,88.65
2018-11-01T19:05:06.377Z,90.92
2018-11-01T19:07:08.677Z,89.70
2018-11-01T19:09:10.697Z,81.60
2018-11-01T19:11:12.790Z,73.70
2018-11-01T19:13:14.808Z,164.15
2018-11-01T19:15:16.899Z,272.00
2018-11-01T19:17:18.827Z,171.40
2018-11-01T19:19:20.857Z,145.35
2018-11-01T19:21:23.208Z,143.55
2018-11-01T19:23:25.232Z,140.52
2018-11-01T19:25:27.280Z,141.80
2018-11-01T19:27:29.486Z,144.05
2018-11-01T19:29:31.292Z,138.00
2018-11-01T19:31:33.270Z,131.87
2018-11-01T19:33:35.443Z,131.15
2018-11-01T19:35:37.461Z,126.35
2018-11-01T19:37:39.440Z,121.13
2018-11-01T19:39:41.445Z,123.10
2018-11-01T19:41:43.438Z,119.08
2018-11-01T19:43:45.470Z,113.55
2018-11-01T19:45:47.451Z,107.87
2018-11-01T19:47:49.427Z,104.80
2018-11-01T19:49:51.507Z,103.17
2018-11-01T19:51:53.433Z,100.65
2018-11-01T19:53:55.515Z,92.67
2018-11-01T19:55:57.486Z,96.47
2018-11-01T19:57:59.478Z,90.22
2018-11-01T20:00:01.484Z,93.40
2018-11-01T20:02:03.520Z,85.30
2018-11-01T20:04:05.620Z,75.52
2018-11-01T20:06:07.811Z,77.00
2018-11-01T20:08:09.867Z,73.33
2018-11-01T20:10:12.308Z,70.62
2018-11-01T20:12:14.287Z,67.65
2018-11-01T20:14:16.487Z,71.37
2018-11-01T20:16:18.457Z,63.92
2018-11-01T20:18:20.734Z,62.90
2018-11-01T20:20:22.715Z,59.80
2018-11-01T20:22:24.764Z,55.00
2018-11-01T20:24:26.734Z,52.62
2018-11-01T20:26:28.715Z,53.42
2018-11-01T20:28:30.742Z,53.33
2018-11-01T20:30:32.763Z,49.60
2018-11-01T20:32:34.810Z,48.68
2018-11-01T20:34:37.041Z,44.77
2018-11-01T20:36:39.019Z,48.83
2018-11-01T20:38:41.077Z,48.80
2018-11-01T20:40:43.088Z,45.63
2018-11-01T20:42:45.120Z,47.25
2018-11-01T20:44:47.093Z,44.25
2018-11-01T20:46:49.095Z,42.08
2018-11-01T20:48:51.084Z,41.45
2018-11-01T20:50:53.082Z,39.35
2018-11-01T20:52:55.093Z,40.30
2018-11-01T20:54:57.068Z,37.00
2018-11-01T20:56:59.077Z,36.30
2018-11-01T20:59:01.068Z,33.45
2018-11-01T21:01:03.054Z,201.07
2018-11-01T21:03:05.062Z,44.90
2018-11-01T21:05:07.192Z,40.63
2018-11-01T21:07:09.089Z,44.45
2018-11-01T21:09:11.107Z,56.85
2018-11-01T21:11:13.171Z,63.75
2018-11-01T21:13:15.080Z,75.30
2018-11-01T21:15:17.090Z,79.40
2018-11-01T21:17:19.137Z,79.35
2018-11-01T21:19:21.512Z,70.28
2018-11-01T21:21:23.962Z,69.40
2018-11-01T21:23:25.966Z,67.35
2018-11-01T21:25:27.955Z,58.98
2018-11-01T21:27:29.962Z,56.65
2018-11-01T21:29:31.941Z,52.10
2018-11-01T21:31:33.944Z,71.20
2018-11-01T21:33:36.357Z,49.53
2018-11-01T21:35:38.386Z,58.73
2018-11-01T21:37:40.407Z,70.20
2018-11-01T21:39:42.397Z,83.37
2018-11-01T21:41:44.385Z,81.50
2018-11-01T21:43:46.399Z,71.30
2018-11-01T21:45:48.383Z,71.25
2018-11-01T21:47:50.441Z,65.95
2018-11-01T21:49:52.418Z,49.30
2018-11-01T21:51:54.443Z,48.35
2018-11-01T21:53:56.436Z,45.98
2018-11-01T21:55:58.426Z,44.33
2018-11-01T21:58:00.437Z,34.75
